sensor_id;sensor_type;location;lat;lon;timestamp;P1;durP1;ratioP1;P2;durP2;ratioP2
55539;SDS011;41384;51.418;7.286;2023-04-26T00:02:14;5.25;;;2.08;;
55539;SDS011;41384;51.418;7.286;2023-04-26T00:04:39;5.85;;;2.13;;
55539;SDS011;41384;51.418;7.286;2023-04-26T00:07:05;5.95;;;2.08;;
55539;SDS011;41384;51.418;7.286;2023-04-26T00:09:31;3.80;;;2.28;;
55539;SDS011;41384;51.418;7.286;2023-04-26T00:11:57;6.40;;;2.25;;
55539;SDS011;41384;51.418;7.286;2023-04-26T00:14:23;4.05;;;2.10;;
55539;SDS011;41384;51.418;7.286;2023-04-26T00:16:48;6.43;;;2.42;;
55539;SDS011;41384;51.418;7.286;2023-04-26T00:19:13;7.15;;;2.17;;
55539;SDS011;41384;51.418;7.286;2023-04-26T00:21:40;6.00;;;2.10;;
55539;SDS011;41384;51.418;7.286;2023-04-26T00:24:05;6.57;;;2.80;;
55539;SDS011;41384;51.418;7.286;2023-04-26T00:26:31;4.80;;;2.40;;
55539;SDS011;41384;51.418;7.286;2023-04-26T00:28:58;6.82;;;2.17;;
55539;SDS011;41384;51.418;7.286;2023-04-26T00:31:23;3.17;;;2.15;;
55539;SDS011;41384;51.418;7.286;2023-04-26T00:33:49;7.28;;;2.65;;
55539;SDS011;41384;51.418;7.286;2023-04-26T00:36:15;4.35;;;2.50;;
55539;SDS011;41384;51.418;7.286;2023-04-26T00:38:43;6.18;;;2.90;;
55539;SDS011;41384;51.418;7.286;2023-04-26T00:41:08;7.13;;;2.35;;
55539;SDS011;41384;51.418;7.286;2023-04-26T00:43:34;8.13;;;2.53;;
55539;SDS011;41384;51.418;7.286;2023-04-26T00:45:59;5.57;;;2.35;;
55539;SDS011;41384;51.418;7.286;2023-04-26T00:48:25;7.57;;;2.70;;
55539;SDS011;41384;51.418;7.286;2023-04-26T00:50:51;5.97;;;2.58;;
55539;SDS011;41384;51.418;7.286;2023-04-26T00:53:16;5.57;;;2.50;;
55539;SDS011;41384;51.418;7.286;2023-04-26T00:55:42;4.28;;;3.03;;
55539;SDS011;41384;51.418;7.286;2023-04-26T00:58:08;9.98;;;3.08;;
55539;SDS011;41384;51.418;7.286;2023-04-26T01:00:33;4.97;;;2.80;;
55539;SDS011;41384;51.418;7.286;2023-04-26T01:02:59;7.05;;;2.67;;
55539;SDS011;41384;51.418;7.286;2023-04-26T01:05:24;7.32;;;3.38;;
55539;SDS011;41384;51.418;7.286;2023-04-26T01:07:50;6.68;;;2.53;;
55539;SDS011;41384;51.418;7.286;2023-04-26T01:10:16;6.82;;;2.72;;
55539;SDS011;41384;51.418;7.286;2023-04-26T01:12:41;9.35;;;3.30;;
55539;SDS011;41384;51.418;7.286;2023-04-26T01:15:07;5.30;;;2.90;;
55539;SDS011;41384;51.418;7.286;2023-04-26T01:17:33;9.48;;;3.65;;
55539;SDS011;41384;51.418;7.286;2023-04-26T01:19:58;11.32;;;3.20;;
55539;SDS011;41384;51.418;7.286;2023-04-26T01:22:24;4.78;;;2.78;;
55539;SDS011;41384;51.418;7.286;2023-04-26T01:24:50;6.25;;;2.90;;
55539;SDS011;41384;51.418;7.286;2023-04-26T01:27:17;5.35;;;3.05;;
55539;SDS011;41384;51.418;7.286;2023-04-26T01:29:42;7.72;;;3.10;;
55539;SDS011;41384;51.418;7.286;2023-04-26T01:32:07;5.40;;;2.83;;
55539;SDS011;41384;51.418;7.286;2023-04-26T01:34:33;10.95;;;3.65;;
55539;SDS011;41384;51.418;7.286;2023-04-26T01:37:01;6.80;;;3.05;;
55539;SDS011;41384;51.418;7.286;2023-04-26T01:39:28;8.75;;;2.90;;
55539;SDS011;41384;51.418;7.286;2023-04-26T01:41:53;5.78;;;3.10;;
55539;SDS011;41384;51.418;7.286;2023-04-26T01:44:18;4.95;;;3.50;;
55539;SDS011;41384;51.418;7.286;2023-04-26T01:46:43;4.85;;;3.03;;
55539;SDS011;41384;51.418;7.286;2023-04-26T01:49:10;5.60;;;3.03;;
55539;SDS011;41384;51.418;7.286;2023-04-26T01:51:35;9.38;;;3.40;;
55539;SDS011;41384;51.418;7.286;2023-04-26T01:54:01;7.88;;;2.85;;
55539;SDS011;41384;51.418;7.286;2023-04-26T01:56:27;5.03;;;2.80;;
55539;SDS011;41384;51.418;7.286;2023-04-26T01:58:52;8.27;;;3.38;;
55539;SDS011;41384;51.418;7.286;2023-04-26T02:01:20;6.18;;;3.00;;
55539;SDS011;41384;51.418;7.286;2023-04-26T02:03:45;7.70;;;3.05;;
55539;SDS011;41384;51.418;7.286;2023-04-26T02:06:10;4.88;;;2.78;;
55539;SDS011;41384;51.418;7.286;2023-04-26T02:08:36;5.70;;;3.15;;
55539;SDS011;41384;51.418;7.286;2023-04-26T02:11:01;4.50;;;2.90;;
55539;SDS011;41384;51.418;7.286;2023-04-26T02:13:26;3.58;;;3.03;;
55539;SDS011;41384;51.418;7.286;2023-04-26T02:15:51;12.40;;;3.45;;
55539;SDS011;41384;51.418;7.286;2023-04-26T02:18:17;10.30;;;3.65;;
55539;SDS011;41384;51.418;7.286;2023-04-26T02:20:45;7.82;;;3.70;;
55539;SDS011;41384;51.418;7.286;2023-04-26T02:23:11;7.85;;;3.38;;
55539;SDS011;41384;51.418;7.286;2023-04-26T02:25:36;7.97;;;3.17;;
55539;SDS011;41384;51.418;7.286;2023-04-26T02:28:03;8.30;;;3.53;;
55539;SDS011;41384;51.418;7.286;2023-04-26T02:30:29;6.45;;;3.28;;
55539;SDS011;41384;51.418;7.286;2023-04-26T02:32:55;8.40;;;3.20;;
55539;SDS011;41384;51.418;7.286;2023-04-26T02:35:21;8.40;;;2.92;;
55539;SDS011;41384;51.418;7.286;2023-04-26T02:37:47;6.45;;;2.83;;
55539;SDS011;41384;51.418;7.286;2023-04-26T02:40:16;6.03;;;2.80;;
55539;SDS011;41384;51.418;7.286;2023-04-26T02:42:42;7.80;;;2.72;;
55539;SDS011;41384;51.418;7.286;2023-04-26T02:45:07;9.43;;;3.70;;
55539;SDS011;41384;51.418;7.286;2023-04-26T02:47:33;9.07;;;3.35;;
55539;SDS011;41384;51.418;7.286;2023-04-26T02:50:00;9.05;;;3.70;;
55539;SDS011;41384;51.418;7.286;2023-04-26T02:52:26;6.70;;;3.25;;
55539;SDS011;41384;51.418;7.286;2023-04-26T02:54:51;6.07;;;3.35;;
55539;SDS011;41384;51.418;7.286;2023-04-26T02:57:17;7.55;;;3.03;;
55539;SDS011;41384;51.418;7.286;2023-04-26T02:59:42;6.95;;;2.95;;
55539;SDS011;41384;51.418;7.286;2023-04-26T03:02:07;8.05;;;3.13;;
55539;SDS011;41384;51.418;7.286;2023-04-26T03:04:33;5.38;;;2.95;;
55539;SDS011;41384;51.418;7.286;2023-04-26T03:06:59;7.53;;;3.30;;
55539;SDS011;41384;51.418;7.286;2023-04-26T03:09:26;6.88;;;3.38;;
55539;SDS011;41384;51.418;7.286;2023-04-26T03:11:51;6.82;;;3.08;;
55539;SDS011;41384;51.418;7.286;2023-04-26T03:14:16;5.63;;;3.50;;
55539;SDS011;41384;51.418;7.286;2023-04-26T03:16:42;9.45;;;3.65;;
55539;SDS011;41384;51.418;7.286;2023-04-26T03:19:08;7.75;;;3.55;;
55539;SDS011;41384;51.418;7.286;2023-04-26T03:21:34;10.07;;;3.85;;
55539;SDS011;41384;51.418;7.286;2023-04-26T03:23:59;9.10;;;3.60;;
55539;SDS011;41384;51.418;7.286;2023-04-26T03:26:25;4.57;;;3.50;;
55539;SDS011;41384;51.418;7.286;2023-04-26T03:28:50;7.55;;;3.70;;
55539;SDS011;41384;51.418;7.286;2023-04-26T03:31:15;7.93;;;4.20;;
55539;SDS011;41384;51.418;7.286;2023-04-26T03:33:41;9.60;;;4.13;;
55539;SDS011;41384;51.418;7.286;2023-04-26T03:36:06;10.38;;;4.35;;
55539;SDS011;41384;51.418;7.286;2023-04-26T03:38:31;9.98;;;4.03;;
55539;SDS011;41384;51.418;7.286;2023-04-26T03:40:57;6.57;;;3.60;;
55539;SDS011;41384;51.418;7.286;2023-04-26T03:43:22;8.38;;;3.95;;
55539;SDS011;41384;51.418;7.286;2023-04-26T03:45:48;8.77;;;4.03;;
55539;SDS011;41384;51.418;7.286;2023-04-26T03:48:13;8.38;;;4.57;;
55539;SDS011;41384;51.418;7.286;2023-04-26T03:50:40;9.13;;;4.10;;
55539;SDS011;41384;51.418;7.286;2023-04-26T03:53:05;8.95;;;4.80;;
55539;SDS011;41384;51.418;7.286;2023-04-26T03:55:31;8.23;;;4.50;;
55539;SDS011;41384;51.418;7.286;2023-04-26T03:57:56;8.88;;;4.55;;
55539;SDS011;41384;51.418;7.286;2023-04-26T04:00:21;11.95;;;5.10;;
55539;SDS011;41384;51.418;7.286;2023-04-26T04:02:47;10.85;;;4.80;;
55539;SDS011;41384;51.418;7.286;2023-04-26T04:05:12;9.68;;;4.88;;
55539;SDS011;41384;51.418;7.286;2023-04-26T04:07:37;11.05;;;4.80;;
55539;SDS011;41384;51.418;7.286;2023-04-26T04:10:03;12.45;;;5.47;;
55539;SDS011;41384;51.418;7.286;2023-04-26T04:12:28;11.00;;;5.28;;
55539;SDS011;41384;51.418;7.286;2023-04-26T04:14:54;9.20;;;5.20;;
55539;SDS011;41384;51.418;7.286;2023-04-26T04:17:19;12.15;;;5.18;;
55539;SDS011;41384;51.418;7.286;2023-04-26T04:19:44;9.15;;;4.93;;
55539;SDS011;41384;51.418;7.286;2023-04-26T04:22:10;13.55;;;5.47;;
55539;SDS011;41384;51.418;7.286;2023-04-26T04:24:35;10.07;;;5.80;;
55539;SDS011;41384;51.418;7.286;2023-04-26T04:27:01;16.70;;;5.68;;
55539;SDS011;41384;51.418;7.286;2023-04-26T04:29:27;13.80;;;5.53;;
55539;SDS011;41384;51.418;7.286;2023-04-26T04:31:52;12.23;;;5.93;;
55539;SDS011;41384;51.418;7.286;2023-04-26T04:34:17;15.50;;;6.25;;
55539;SDS011;41384;51.418;7.286;2023-04-26T04:36:43;10.98;;;6.18;;
55539;SDS011;41384;51.418;7.286;2023-04-26T04:39:09;12.98;;;6.38;;
55539;SDS011;41384;51.418;7.286;2023-04-26T04:41:39;13.48;;;5.88;;
55539;SDS011;41384;51.418;7.286;2023-04-26T04:44:11;14.13;;;5.95;;
55539;SDS011;41384;51.418;7.286;2023-04-26T04:46:37;13.55;;;5.70;;
55539;SDS011;41384;51.418;7.286;2023-04-26T04:49:02;12.15;;;5.85;;
55539;SDS011;41384;51.418;7.286;2023-04-26T04:51:27;13.32;;;5.78;;
55539;SDS011;41384;51.418;7.286;2023-04-26T04:53:53;12.50;;;6.35;;
55539;SDS011;41384;51.418;7.286;2023-04-26T04:56:18;13.43;;;6.32;;
55539;SDS011;41384;51.418;7.286;2023-04-26T04:58:43;14.25;;;6.63;;
55539;SDS011;41384;51.418;7.286;2023-04-26T05:01:08;12.05;;;6.88;;
55539;SDS011;41384;51.418;7.286;2023-04-26T05:03:34;12.65;;;6.50;;
55539;SDS011;41384;51.418;7.286;2023-04-26T05:05:59;12.60;;;6.35;;
55539;SDS011;41384;51.418;7.286;2023-04-26T05:08:25;14.02;;;6.13;;
55539;SDS011;41384;51.418;7.286;2023-04-26T05:10:50;15.05;;;7.38;;
55539;SDS011;41384;51.418;7.286;2023-04-26T05:13:17;14.10;;;6.75;;
55539;SDS011;41384;51.418;7.286;2023-04-26T05:15:42;16.00;;;7.45;;
55539;SDS011;41384;51.418;7.286;2023-04-26T05:18:07;14.82;;;6.65;;
55539;SDS011;41384;51.418;7.286;2023-04-26T05:20:33;13.88;;;7.03;;
55539;SDS011;41384;51.418;7.286;2023-04-26T05:22:58;19.92;;;7.78;;
55539;SDS011;41384;51.418;7.286;2023-04-26T05:25:23;14.35;;;7.32;;
55539;SDS011;41384;51.418;7.286;2023-04-26T05:27:48;12.85;;;7.43;;
55539;SDS011;41384;51.418;7.286;2023-04-26T05:30:14;13.40;;;6.63;;
55539;SDS011;41384;51.418;7.286;2023-04-26T05:32:40;15.65;;;7.95;;
55539;SDS011;41384;51.418;7.286;2023-04-26T05:35:06;14.73;;;7.35;;
55539;SDS011;41384;51.418;7.286;2023-04-26T05:37:32;17.95;;;7.88;;
55539;SDS011;41384;51.418;7.286;2023-04-26T05:39:58;18.38;;;7.65;;
55539;SDS011;41384;51.418;7.286;2023-04-26T05:42:24;15.88;;;7.45;;
55539;SDS011;41384;51.418;7.286;2023-04-26T05:44:49;15.45;;;7.00;;
55539;SDS011;41384;51.418;7.286;2023-04-26T05:47:14;14.70;;;7.47;;
55539;SDS011;41384;51.418;7.286;2023-04-26T05:49:39;17.85;;;7.88;;
55539;SDS011;41384;51.418;7.286;2023-04-26T05:52:05;16.05;;;7.28;;
55539;SDS011;41384;51.418;7.286;2023-04-26T05:54:30;15.13;;;7.25;;
55539;SDS011;41384;51.418;7.286;2023-04-26T05:56:55;10.27;;;6.15;;
55539;SDS011;41384;51.418;7.286;2023-04-26T05:59:20;20.13;;;7.57;;
55539;SDS011;41384;51.418;7.286;2023-04-26T06:01:46;14.20;;;7.75;;
55539;SDS011;41384;51.418;7.286;2023-04-26T06:04:11;14.45;;;7.20;;
55539;SDS011;41384;51.418;7.286;2023-04-26T06:06:36;11.93;;;7.03;;
55539;SDS011;41384;51.418;7.286;2023-04-26T06:09:02;16.65;;;6.90;;
55539;SDS011;41384;51.418;7.286;2023-04-26T06:11:28;16.38;;;7.43;;
55539;SDS011;41384;51.418;7.286;2023-04-26T06:13:53;18.05;;;7.35;;
55539;SDS011;41384;51.418;7.286;2023-04-26T06:16:20;14.60;;;7.40;;
55539;SDS011;41384;51.418;7.286;2023-04-26T06:18:46;15.30;;;6.50;;
55539;SDS011;41384;51.418;7.286;2023-04-26T06:21:11;11.93;;;6.13;;
55539;SDS011;41384;51.418;7.286;2023-04-26T06:23:36;12.93;;;6.57;;
55539;SDS011;41384;51.418;7.286;2023-04-26T06:26:02;11.10;;;6.50;;
55539;SDS011;41384;51.418;7.286;2023-04-26T06:28:27;13.57;;;5.95;;
55539;SDS011;41384;51.418;7.286;2023-04-26T06:30:52;12.18;;;5.72;;
55539;SDS011;41384;51.418;7.286;2023-04-26T06:33:17;9.50;;;5.55;;
55539;SDS011;41384;51.418;7.286;2023-04-26T06:35:43;12.55;;;5.88;;
55539;SDS011;41384;51.418;7.286;2023-04-26T06:38:08;14.18;;;6.10;;
55539;SDS011;41384;51.418;7.286;2023-04-26T06:40:33;17.80;;;6.45;;
55539;SDS011;41384;51.418;7.286;2023-04-26T06:43:00;11.95;;;6.05;;
55539;SDS011;41384;51.418;7.286;2023-04-26T06:45:26;12.13;;;6.00;;
55539;SDS011;41384;51.418;7.286;2023-04-26T06:47:51;12.15;;;6.85;;
55539;SDS011;41384;51.418;7.286;2023-04-26T06:50:17;13.23;;;6.25;;
55539;SDS011;41384;51.418;7.286;2023-04-26T06:52:42;12.93;;;5.95;;
55539;SDS011;41384;51.418;7.286;2023-04-26T06:55:07;11.82;;;6.28;;
55539;SDS011;41384;51.418;7.286;2023-04-26T06:57:33;9.38;;;5.97;;
55539;SDS011;41384;51.418;7.286;2023-04-26T06:59:58;12.93;;;6.00;;
55539;SDS011;41384;51.418;7.286;2023-04-26T07:02:24;11.73;;;6.00;;
55539;SDS011;41384;51.418;7.286;2023-04-26T07:04:49;10.90;;;5.00;;
55539;SDS011;41384;51.418;7.286;2023-04-26T07:07:14;11.40;;;5.68;;
55539;SDS011;41384;51.418;7.286;2023-04-26T07:09:41;11.75;;;5.20;;
55539;SDS011;41384;51.418;7.286;2023-04-26T07:12:06;16.83;;;6.10;;
55539;SDS011;41384;51.418;7.286;2023-04-26T07:14:32;11.68;;;5.45;;
55539;SDS011;41384;51.418;7.286;2023-04-26T07:16:57;12.35;;;5.63;;
55539;SDS011;41384;51.418;7.286;2023-04-26T07:19:22;10.20;;;5.20;;
55539;SDS011;41384;51.418;7.286;2023-04-26T07:21:48;12.30;;;4.93;;
55539;SDS011;41384;51.418;7.286;2023-04-26T07:24:13;8.93;;;4.50;;
55539;SDS011;41384;51.418;7.286;2023-04-26T07:26:38;10.38;;;4.05;;
55539;SDS011;41384;51.418;7.286;2023-04-26T07:29:03;9.45;;;3.60;;
55539;SDS011;41384;51.418;7.286;2023-04-26T07:31:32;10.55;;;3.42;;
55539;SDS011;41384;51.418;7.286;2023-04-26T07:33:57;11.10;;;4.53;;
55539;SDS011;41384;51.418;7.286;2023-04-26T07:36:22;9.13;;;4.03;;
55539;SDS011;41384;51.418;7.286;2023-04-26T07:38:48;8.15;;;3.63;;
55539;SDS011;41384;51.418;7.286;2023-04-26T07:41:13;10.55;;;2.92;;
55539;SDS011;41384;51.418;7.286;2023-04-26T07:43:41;13.18;;;4.28;;
55539;SDS011;41384;51.418;7.286;2023-04-26T07:46:06;5.97;;;2.92;;
55539;SDS011;41384;51.418;7.286;2023-04-26T07:48:32;8.90;;;3.20;;
55539;SDS011;41384;51.418;7.286;2023-04-26T07:51:05;8.40;;;3.10;;
55539;SDS011;41384;51.418;7.286;2023-04-26T07:53:39;6.53;;;2.90;;
55539;SDS011;41384;51.418;7.286;2023-04-26T07:56:05;5.82;;;2.90;;
55539;SDS011;41384;51.418;7.286;2023-04-26T07:58:32;4.70;;;2.70;;
55539;SDS011;41384;51.418;7.286;2023-04-26T08:00:58;8.93;;;2.95;;
55539;SDS011;41384;51.418;7.286;2023-04-26T08:03:24;6.72;;;2.72;;
55539;SDS011;41384;51.418;7.286;2023-04-26T08:05:51;6.13;;;2.38;;
55539;SDS011;41384;51.418;7.286;2023-04-26T08:08:17;5.78;;;2.70;;
55539;SDS011;41384;51.418;7.286;2023-04-26T08:10:43;8.38;;;2.25;;
55539;SDS011;41384;51.418;7.286;2023-04-26T08:13:08;5.55;;;2.28;;
55539;SDS011;41384;51.418;7.286;2023-04-26T08:15:33;7.25;;;2.13;;
55539;SDS011;41384;51.418;7.286;2023-04-26T08:17:58;5.28;;;2.50;;
55539;SDS011;41384;51.418;7.286;2023-04-26T08:20:24;8.80;;;2.50;;
55539;SDS011;41384;51.418;7.286;2023-04-26T08:22:53;6.15;;;2.42;;
55539;SDS011;41384;51.418;7.286;2023-04-26T08:25:19;8.90;;;2.67;;
55539;SDS011;41384;51.418;7.286;2023-04-26T08:27:44;6.18;;;2.22;;
55539;SDS011;41384;51.418;7.286;2023-04-26T08:30:10;3.45;;;2.15;;
55539;SDS011;41384;51.418;7.286;2023-04-26T08:32:36;6.85;;;2.70;;
55539;SDS011;41384;51.418;7.286;2023-04-26T08:35:02;6.13;;;2.20;;
55539;SDS011;41384;51.418;7.286;2023-04-26T08:37:27;8.00;;;2.65;;
55539;SDS011;41384;51.418;7.286;2023-04-26T08:39:52;6.25;;;2.50;;
55539;SDS011;41384;51.418;7.286;2023-04-26T08:42:18;5.05;;;2.75;;
55539;SDS011;41384;51.418;7.286;2023-04-26T08:44:44;6.55;;;3.13;;
55539;SDS011;41384;51.418;7.286;2023-04-26T08:47:39;6.57;;;2.60;;
55539;SDS011;41384;51.418;7.286;2023-04-26T08:50:24;4.35;;;2.13;;
55539;SDS011;41384;51.418;7.286;2023-04-26T08:52:50;5.63;;;1.83;;
55539;SDS011;41384;51.418;7.286;2023-04-26T08:55:16;5.72;;;1.70;;
55539;SDS011;41384;51.418;7.286;2023-04-26T08:57:47;5.03;;;2.00;;
55539;SDS011;41384;51.418;7.286;2023-04-26T09:00:13;3.15;;;1.50;;
55539;SDS011;41384;51.418;7.286;2023-04-26T09:02:40;4.18;;;1.77;;
55539;SDS011;41384;51.418;7.286;2023-04-26T09:05:13;5.60;;;1.85;;
55539;SDS011;41384;51.418;7.286;2023-04-26T09:07:45;3.15;;;1.88;;
55539;SDS011;41384;51.418;7.286;2023-04-26T09:10:12;4.32;;;2.05;;
55539;SDS011;41384;51.418;7.286;2023-04-26T09:12:40;3.40;;;1.67;;
55539;SDS011;41384;51.418;7.286;2023-04-26T09:15:06;4.82;;;2.05;;
55539;SDS011;41384;51.418;7.286;2023-04-26T09:17:33;4.35;;;1.70;;
55539;SDS011;41384;51.418;7.286;2023-04-26T09:20:01;4.32;;;1.90;;
55539;SDS011;41384;51.418;7.286;2023-04-26T09:22:40;4.50;;;1.67;;
55539;SDS011;41384;51.418;7.286;2023-04-26T09:25:06;6.72;;;2.00;;
55539;SDS011;41384;51.418;7.286;2023-04-26T09:27:35;3.95;;;1.70;;
55539;SDS011;41384;51.418;7.286;2023-04-26T09:30:06;4.88;;;2.13;;
55539;SDS011;41384;51.418;7.286;2023-04-26T09:32:47;6.85;;;2.10;;
55539;SDS011;41384;51.418;7.286;2023-04-26T09:37:53;6.05;;;1.90;;
55539;SDS011;41384;51.418;7.286;2023-04-26T09:40:29;2.28;;;1.60;;
55539;SDS011;41384;51.418;7.286;2023-04-26T09:43:01;4.75;;;1.77;;
55539;SDS011;41384;51.418;7.286;2023-04-26T09:45:28;4.88;;;1.80;;
55539;SDS011;41384;51.418;7.286;2023-04-26T09:47:55;5.50;;;1.38;;
55539;SDS011;41384;51.418;7.286;2023-04-26T09:50:37;3.03;;;1.50;;
55539;SDS011;41384;51.418;7.286;2023-04-26T09:53:02;4.50;;;1.70;;
55539;SDS011;41384;51.418;7.286;2023-04-26T09:55:28;5.95;;;1.83;;
55539;SDS011;41384;51.418;7.286;2023-04-26T09:57:55;6.18;;;2.30;;
55539;SDS011;41384;51.418;7.286;2023-04-26T10:00:22;5.85;;;2.80;;
55539;SDS011;41384;51.418;7.286;2023-04-26T10:02:49;4.85;;;2.83;;
55539;SDS011;41384;51.418;7.286;2023-04-26T10:05:16;6.65;;;2.45;;
55539;SDS011;41384;51.418;7.286;2023-04-26T10:07:41;7.60;;;2.90;;
55539;SDS011;41384;51.418;7.286;2023-04-26T10:10:07;5.25;;;2.15;;
55539;SDS011;41384;51.418;7.286;2023-04-26T10:12:34;9.32;;;3.33;;
55539;SDS011;41384;51.418;7.286;2023-04-26T10:15:02;5.93;;;3.42;;
55539;SDS011;41384;51.418;7.286;2023-04-26T10:17:28;5.60;;;2.60;;
55539;SDS011;41384;51.418;7.286;2023-04-26T10:19:55;6.07;;;3.10;;
55539;SDS011;41384;51.418;7.286;2023-04-26T10:22:24;4.88;;;3.20;;
55539;SDS011;41384;51.418;7.286;2023-04-26T10:24:53;6.22;;;3.35;;
55539;SDS011;41384;51.418;7.286;2023-04-26T10:27:45;4.00;;;3.00;;
55539;SDS011;41384;51.418;7.286;2023-04-26T10:30:14;6.75;;;2.72;;
55539;SDS011;41384;51.418;7.286;2023-04-26T10:33:14;4.78;;;2.15;;
55539;SDS011;41384;51.418;7.286;2023-04-26T10:35:32;5.65;;;2.40;;
55539;SDS011;41384;51.418;7.286;2023-04-26T10:40:29;3.97;;;2.17;;
55539;SDS011;41384;51.418;7.286;2023-04-26T10:45:34;5.25;;;2.80;;
55539;SDS011;41384;51.418;7.286;2023-04-26T10:48:15;4.15;;;2.35;;
55539;SDS011;41384;51.418;7.286;2023-04-26T10:53:29;4.53;;;2.90;;
55539;SDS011;41384;51.418;7.286;2023-04-26T10:55:56;9.13;;;3.20;;
55539;SDS011;41384;51.418;7.286;2023-04-26T11:01:06;5.53;;;3.70;;
55539;SDS011;41384;51.418;7.286;2023-04-26T11:03:41;6.85;;;3.50;;
55539;SDS011;41384;51.418;7.286;2023-04-26T11:06:22;7.22;;;3.55;;
55539;SDS011;41384;51.418;7.286;2023-04-26T11:08:48;6.20;;;2.60;;
55539;SDS011;41384;51.418;7.286;2023-04-26T11:11:15;6.47;;;3.10;;
55539;SDS011;41384;51.418;7.286;2023-04-26T11:13:43;5.38;;;3.15;;
55539;SDS011;41384;51.418;7.286;2023-04-26T11:16:13;7.88;;;2.80;;
55539;SDS011;41384;51.418;7.286;2023-04-26T11:18:40;6.47;;;3.25;;
55539;SDS011;41384;51.418;7.286;2023-04-26T11:21:09;2.83;;;2.15;;
55539;SDS011;41384;51.418;7.286;2023-04-26T11:23:36;5.00;;;2.20;;
55539;SDS011;41384;51.418;7.286;2023-04-26T11:26:02;3.40;;;2.10;;
55539;SDS011;41384;51.418;7.286;2023-04-26T11:28:29;4.30;;;2.58;;
55539;SDS011;41384;51.418;7.286;2023-04-26T11:30:55;4.57;;;2.22;;
55539;SDS011;41384;51.418;7.286;2023-04-26T11:33:21;6.22;;;2.28;;
55539;SDS011;41384;51.418;7.286;2023-04-26T11:35:47;4.45;;;2.03;;
55539;SDS011;41384;51.418;7.286;2023-04-26T11:38:14;5.13;;;2.75;;
55539;SDS011;41384;51.418;7.286;2023-04-26T11:40:39;7.30;;;2.20;;
55539;SDS011;41384;51.418;7.286;2023-04-26T11:43:05;5.03;;;2.75;;
55539;SDS011;41384;51.418;7.286;2023-04-26T11:45:32;6.47;;;2.50;;
55539;SDS011;41384;51.418;7.286;2023-04-26T11:48:00;6.53;;;2.40;;
55539;SDS011;41384;51.418;7.286;2023-04-26T11:50:28;9.98;;;2.65;;
55539;SDS011;41384;51.418;7.286;2023-04-26T11:52:56;10.68;;;2.58;;
55539;SDS011;41384;51.418;7.286;2023-04-26T11:55:27;3.58;;;2.03;;
55539;SDS011;41384;51.418;7.286;2023-04-26T11:57:55;7.30;;;2.50;;
55539;SDS011;41384;51.418;7.286;2023-04-26T12:00:21;6.05;;;2.20;;
55539;SDS011;41384;51.418;7.286;2023-04-26T12:02:47;6.15;;;2.20;;
55539;SDS011;41384;51.418;7.286;2023-04-26T12:05:22;6.13;;;2.63;;
55539;SDS011;41384;51.418;7.286;2023-04-26T12:07:55;4.97;;;2.17;;
55539;SDS011;41384;51.418;7.286;2023-04-26T12:10:26;7.63;;;2.47;;
55539;SDS011;41384;51.418;7.286;2023-04-26T12:12:53;7.70;;;2.72;;
55539;SDS011;41384;51.418;7.286;2023-04-26T12:15:23;9.15;;;2.40;;
55539;SDS011;41384;51.418;7.286;2023-04-26T12:17:57;4.47;;;2.00;;
55539;SDS011;41384;51.418;7.286;2023-04-26T12:20:30;4.60;;;2.17;;
55539;SDS011;41384;51.418;7.286;2023-04-26T12:25:29;4.28;;;2.20;;
55539;SDS011;41384;51.418;7.286;2023-04-26T12:27:56;5.22;;;2.33;;
55539;SDS011;41384;51.418;7.286;2023-04-26T12:30:21;6.90;;;2.42;;
55539;SDS011;41384;51.418;7.286;2023-04-26T12:32:46;3.88;;;2.38;;
55539;SDS011;41384;51.418;7.286;2023-04-26T12:35:12;5.13;;;2.22;;
55539;SDS011;41384;51.418;7.286;2023-04-26T12:37:37;5.30;;;2.65;;
55539;SDS011;41384;51.418;7.286;2023-04-26T12:40:03;5.20;;;2.20;;
55539;SDS011;41384;51.418;7.286;2023-04-26T12:42:30;6.32;;;2.30;;
55539;SDS011;41384;51.418;7.286;2023-04-26T12:44:56;5.47;;;2.08;;
55539;SDS011;41384;51.418;7.286;2023-04-26T12:47:21;6.65;;;2.40;;
55539;SDS011;41384;51.418;7.286;2023-04-26T12:49:46;6.22;;;2.15;;
55539;SDS011;41384;51.418;7.286;2023-04-26T12:52:12;4.78;;;2.60;;
55539;SDS011;41384;51.418;7.286;2023-04-26T12:54:37;8.98;;;2.70;;
55539;SDS011;41384;51.418;7.286;2023-04-26T12:57:02;7.07;;;2.50;;
55539;SDS011;41384;51.418;7.286;2023-04-26T12:59:27;3.15;;;1.92;;
55539;SDS011;41384;51.418;7.286;2023-04-26T13:01:53;5.85;;;2.28;;
55539;SDS011;41384;51.418;7.286;2023-04-26T13:04:18;4.53;;;2.30;;
55539;SDS011;41384;51.418;7.286;2023-04-26T13:06:43;2.50;;;2.03;;
55539;SDS011;41384;51.418;7.286;2023-04-26T13:09:09;5.75;;;2.50;;
55539;SDS011;41384;51.418;7.286;2023-04-26T13:11:36;3.55;;;2.08;;
55539;SDS011;41384;51.418;7.286;2023-04-26T13:14:02;6.45;;;2.47;;
55539;SDS011;41384;51.418;7.286;2023-04-26T13:16:27;3.25;;;2.25;;
55539;SDS011;41384;51.418;7.286;2023-04-26T13:18:53;3.33;;;2.28;;
55539;SDS011;41384;51.418;7.286;2023-04-26T13:21:19;4.97;;;2.05;;
55539;SDS011;41384;51.418;7.286;2023-04-26T13:23:44;4.63;;;2.28;;
55539;SDS011;41384;51.418;7.286;2023-04-26T13:26:10;4.00;;;2.20;;
55539;SDS011;41384;51.418;7.286;2023-04-26T13:28:38;4.65;;;2.38;;
55539;SDS011;41384;51.418;7.286;2023-04-26T13:31:03;5.35;;;2.35;;
55539;SDS011;41384;51.418;7.286;2023-04-26T13:33:28;6.35;;;2.50;;
55539;SDS011;41384;51.418;7.286;2023-04-26T13:35:54;4.97;;;2.20;;
55539;SDS011;41384;51.418;7.286;2023-04-26T13:38:19;5.80;;;2.30;;
55539;SDS011;41384;51.418;7.286;2023-04-26T13:40:45;5.55;;;2.55;;
55539;SDS011;41384;51.418;7.286;2023-04-26T13:43:11;4.35;;;2.15;;
55539;SDS011;41384;51.418;7.286;2023-04-26T13:45:36;2.58;;;2.05;;
55539;SDS011;41384;51.418;7.286;2023-04-26T13:48:01;3.08;;;2.22;;
55539;SDS011;41384;51.418;7.286;2023-04-26T13:50:27;8.10;;;2.60;;
55539;SDS011;41384;51.418;7.286;2023-04-26T13:52:52;5.50;;;2.13;;
55539;SDS011;41384;51.418;7.286;2023-04-26T13:55:17;3.83;;;2.42;;
55539;SDS011;41384;51.418;7.286;2023-04-26T13:57:43;3.97;;;2.20;;
55539;SDS011;41384;51.418;7.286;2023-04-26T14:00:08;5.10;;;2.40;;
55539;SDS011;41384;51.418;7.286;2023-04-26T14:02:35;7.10;;;2.47;;
55539;SDS011;41384;51.418;7.286;2023-04-26T14:05:01;5.78;;;2.50;;
55539;SDS011;41384;51.418;7.286;2023-04-26T14:07:26;2.92;;;2.20;;
55539;SDS011;41384;51.418;7.286;2023-04-26T14:09:51;5.93;;;2.40;;
55539;SDS011;41384;51.418;7.286;2023-04-26T14:12:16;4.45;;;2.20;;
55539;SDS011;41384;51.418;7.286;2023-04-26T14:14:42;4.78;;;2.28;;
55539;SDS011;41384;51.418;7.286;2023-04-26T14:17:07;6.65;;;2.40;;
55539;SDS011;41384;51.418;7.286;2023-04-26T14:19:32;4.90;;;2.10;;
55539;SDS011;41384;51.418;7.286;2023-04-26T14:21:57;9.07;;;2.90;;
55539;SDS011;41384;51.418;7.286;2023-04-26T14:24:23;7.85;;;2.25;;
55539;SDS011;41384;51.418;7.286;2023-04-26T14:26:48;4.50;;;2.42;;
55539;SDS011;41384;51.418;7.286;2023-04-26T14:29:13;5.72;;;2.42;;
55539;SDS011;41384;51.418;7.286;2023-04-26T14:31:38;3.80;;;2.20;;
55539;SDS011;41384;51.418;7.286;2023-04-26T14:34:04;4.70;;;2.25;;
55539;SDS011;41384;51.418;7.286;2023-04-26T14:36:29;5.13;;;2.30;;
55539;SDS011;41384;51.418;7.286;2023-04-26T14:38:55;3.28;;;2.05;;
55539;SDS011;41384;51.418;7.286;2023-04-26T14:41:21;7.10;;;2.60;;
55539;SDS011;41384;51.418;7.286;2023-04-26T14:43:47;3.85;;;1.92;;
55539;SDS011;41384;51.418;7.286;2023-04-26T14:46:12;5.30;;;2.70;;
55539;SDS011;41384;51.418;7.286;2023-04-26T14:48:38;3.92;;;2.22;;
55539;SDS011;41384;51.418;7.286;2023-04-26T14:51:03;2.80;;;2.50;;
55539;SDS011;41384;51.418;7.286;2023-04-26T14:53:29;4.65;;;2.70;;
55539;SDS011;41384;51.418;7.286;2023-04-26T14:55:54;3.85;;;2.63;;
55539;SDS011;41384;51.418;7.286;2023-04-26T14:58:20;6.78;;;2.65;;